createdAt,value
2023-03-18T00:00:52.342Z,12.77
2023-03-18T00:03:20.355Z,11.93
2023-03-18T00:05:47.412Z,10.53
2023-03-18T00:08:14.576Z,10.47
2023-03-18T00:10:44.015Z,10.37
2023-03-18T00:13:13.460Z,11.47
2023-03-18T00:15:40.851Z,10.50
2023-03-18T00:18:08.254Z,10.03
2023-03-18T00:20:41.829Z,10.77
2023-03-18T00:23:09.438Z,9.97
2023-03-18T00:25:39.347Z,11.27
2023-03-18T00:28:09.443Z,9.73
2023-03-18T00:30:42.104Z,11.83
2023-03-18T00:33:12.788Z,9.73
2023-03-18T00:35:40.909Z,10.60
2023-03-18T00:38:20.764Z,12.23
2023-03-18T00:40:53.669Z,11.47
2023-03-18T00:43:29.624Z,10.13
2023-03-18T00:45:57.747Z,10.27
2023-03-18T00:48:27.985Z,10.83
2023-03-18T00:50:56.139Z,11.37
2023-03-18T00:53:25.181Z,12.47
2023-03-18T00:55:53.183Z,9.77
2023-03-18T00:58:23.523Z,9.70
2023-03-18T01:00:53.689Z,11.53
2023-03-18T01:03:25.847Z,13.87
2023-03-18T01:05:53.793Z,11.03
2023-03-18T01:08:23.101Z,10.37
2023-03-18T01:10:51.307Z,10.87
2023-03-18T01:13:19.909Z,11.43
2023-03-18T01:15:48.230Z,14.90
2023-03-18T01:18:17.934Z,10.17
2023-03-18T01:20:44.966Z,11.93
2023-03-18T01:23:14.015Z,11.67
2023-03-18T01:25:45.199Z,12.30
2023-03-18T01:28:14.671Z,14.67
2023-03-18T01:30:44.759Z,12.07
2023-03-18T01:33:12.262Z,10.23
2023-03-18T01:35:39.706Z,10.20
2023-03-18T01:38:09.873Z,8.80
2023-03-18T01:40:40.665Z,9.60
2023-03-18T01:43:28.158Z,9.97
2023-03-18T01:45:58.942Z,9.47
2023-03-18T01:48:30.578Z,8.77
2023-03-18T01:51:09.079Z,8.93
2023-03-18T01:53:44.813Z,8.20
2023-03-18T01:56:13.962Z,7.83
2023-03-18T01:58:45.556Z,8.27
2023-03-18T02:01:26.484Z,7.43
2023-03-18T02:03:55.443Z,8.00
2023-03-18T02:06:25.601Z,7.60
2023-03-18T02:08:56.766Z,7.23
2023-03-18T02:11:26.325Z,5.63
2023-03-18T02:13:55.358Z,6.17
2023-03-18T02:16:31.339Z,8.00
2023-03-18T02:19:11.214Z,6.67
2023-03-18T02:21:58.289Z,7.17
2023-03-18T02:24:38.615Z,6.43
2023-03-18T02:27:26.660Z,5.77
2023-03-18T02:29:59.815Z,6.27
2023-03-18T02:32:31.254Z,6.20
2023-03-18T02:35:03.174Z,6.27
2023-03-18T02:37:32.164Z,6.77
2023-03-18T02:40:25.061Z,7.40
2023-03-18T02:42:55.902Z,7.30
2023-03-18T02:45:55.780Z,8.20
2023-03-18T02:48:33.311Z,8.37
2023-03-18T02:51:01.517Z,7.90
2023-03-18T02:53:31.520Z,8.53
2023-03-18T02:56:00.881Z,8.27
2023-03-18T02:58:31.148Z,10.20
2023-03-18T03:00:59.807Z,9.33
2023-03-18T03:03:27.851Z,8.87
2023-03-18T03:05:55.242Z,8.17
2023-03-18T03:08:22.314Z,10.73
2023-03-18T03:10:52.656Z,10.70
2023-03-18T03:13:22.760Z,14.07
2023-03-18T03:15:49.977Z,12.87
2023-03-18T03:18:26.864Z,12.17
2023-03-18T03:20:56.932Z,12.03
2023-03-18T03:23:29.898Z,10.87
2023-03-18T03:25:57.323Z,12.33
2023-03-18T03:28:27.594Z,11.90
2023-03-18T03:30:55.954Z,10.93
2023-03-18T03:33:23.613Z,11.37
2023-03-18T03:35:50.947Z,11.10
2023-03-18T03:38:20.580Z,12.77
2023-03-18T03:40:48.770Z,9.30
2023-03-18T03:43:17.150Z,9.83
2023-03-18T03:45:46.406Z,8.93
2023-03-18T03:48:14.561Z,7.80
2023-03-18T03:50:42.038Z,8.40
2023-03-18T03:53:10.514Z,8.23
2023-03-18T03:55:37.982Z,8.50
2023-03-18T03:58:06.046Z,8.67
2023-03-18T04:00:36.379Z,10.00
2023-03-18T04:03:04.856Z,10.60
2023-03-18T04:05:34.104Z,11.10
2023-03-18T04:08:04.230Z,12.53
2023-03-18T04:10:36.711Z,11.17
2023-03-18T04:13:05.918Z,14.83
2023-03-18T04:15:36.044Z,11.23
2023-03-18T04:18:07.265Z,11.30
2023-03-18T04:20:38.082Z,11.43
2023-03-18T04:23:24.070Z,12.43
2023-03-18T04:25:54.104Z,12.77
2023-03-18T04:28:23.184Z,12.00
2023-03-18T04:30:52.279Z,11.87
2023-03-18T04:33:19.602Z,12.07
2023-03-18T04:35:49.693Z,14.33
2023-03-18T04:38:20.614Z,12.50
2023-03-18T04:40:47.704Z,12.27
2023-03-18T04:43:16.952Z,13.87
2023-03-18T04:45:47.054Z,12.50
2023-03-18T04:48:17.177Z,14.57
2023-03-18T04:50:47.267Z,14.43
2023-03-18T04:53:17.661Z,14.77
2023-03-18T04:55:49.931Z,15.33
2023-03-18T04:58:19.046Z,15.03
2023-03-18T05:00:46.012Z,16.23
2023-03-18T05:03:13.294Z,16.73
2023-03-18T05:05:40.309Z,15.53
2023-03-18T05:08:09.273Z,18.00
2023-03-18T05:10:40.353Z,22.30
2023-03-18T05:13:07.923Z,17.60
2023-03-18T05:15:38.005Z,21.33
2023-03-18T05:18:05.076Z,19.73
2023-03-18T05:20:32.175Z,20.67
2023-03-18T05:22:59.196Z,21.07
2023-03-18T05:25:26.358Z,22.07
2023-03-18T05:27:54.750Z,22.70
2023-03-18T05:30:23.495Z,21.47
2023-03-18T05:32:51.528Z,20.23
2023-03-18T05:35:22.725Z,18.27
2023-03-18T05:37:49.767Z,18.23
2023-03-18T05:40:18.914Z,21.27
2023-03-18T05:42:56.253Z,19.00
2023-03-18T05:45:26.071Z,17.77
2023-03-18T05:47:54.527Z,17.83
2023-03-18T05:50:37.396Z,18.67
2023-03-18T05:53:07.860Z,22.17
2023-03-18T05:55:37.303Z,18.60
2023-03-18T05:58:07.805Z,17.37
2023-03-18T06:00:37.738Z,17.37
2023-03-18T06:03:07.820Z,17.53
2023-03-18T06:05:37.968Z,17.50
2023-03-18T06:08:05.145Z,16.57
2023-03-18T06:10:34.224Z,16.90
2023-03-18T06:13:12.512Z,15.77
2023-03-18T06:15:42.614Z,18.07
2023-03-18T06:18:11.687Z,15.93
2023-03-18T06:20:41.917Z,16.37
2023-03-18T06:23:11.922Z,15.43
2023-03-18T06:25:41.405Z,16.77
2023-03-18T06:28:11.927Z,16.50
2023-03-18T06:30:39.711Z,17.77
2023-03-18T06:33:09.948Z,15.80
2023-03-18T06:35:37.622Z,15.17
2023-03-18T06:38:08.917Z,16.97
2023-03-18T06:40:39.007Z,14.50
2023-03-18T06:43:08.103Z,15.93
2023-03-18T06:45:37.855Z,15.13
2023-03-18T06:48:05.234Z,15.57
2023-03-18T06:50:34.297Z,14.73
2023-03-18T06:53:17.899Z,14.13
2023-03-18T06:55:47.110Z,13.40
2023-03-18T06:58:18.681Z,13.43
2023-03-18T07:00:48.769Z,12.33
2023-03-18T07:03:18.999Z,13.67
2023-03-18T07:05:48.848Z,12.27
2023-03-18T07:08:16.787Z,13.97
2023-03-18T07:10:44.800Z,13.17
2023-03-18T07:13:13.524Z,11.97
2023-03-18T07:15:41.734Z,11.37
2023-03-18T07:18:12.218Z,11.17
2023-03-18T07:20:39.354Z,10.47
2023-03-18T07:23:10.035Z,11.87
2023-03-18T07:25:37.088Z,11.37
2023-03-18T07:28:05.906Z,11.00
2023-03-18T07:30:34.112Z,11.27
2023-03-18T07:33:01.409Z,11.10
2023-03-18T07:35:32.490Z,11.87
2023-03-18T07:38:00.977Z,11.90
2023-03-18T07:40:30.986Z,11.83
2023-03-18T07:43:00.909Z,12.97
2023-03-18T07:45:31.312Z,13.23
2023-03-18T07:47:59.482Z,13.63
2023-03-18T07:50:29.678Z,12.60
2023-03-18T07:52:57.206Z,15.30
2023-03-18T07:55:24.544Z,13.67
2023-03-18T07:57:51.597Z,15.27
2023-03-18T08:00:22.369Z,16.20
2023-03-18T08:02:49.431Z,16.47
2023-03-18T08:05:16.870Z,16.93
2023-03-18T08:07:43.946Z,22.00
2023-03-18T08:10:12.698Z,18.50
2023-03-18T08:12:52.120Z,19.43
2023-03-18T08:15:22.321Z,18.57
2023-03-18T08:17:50.746Z,21.13
2023-03-18T08:20:20.214Z,21.17
2023-03-18T08:22:50.441Z,21.87
2023-03-18T08:25:23.116Z,21.40
2023-03-18T08:27:52.583Z,22.17
2023-03-18T08:30:25.368Z,24.07
2023-03-18T08:32:53.405Z,29.83
2023-03-18T08:35:21.860Z,24.40
2023-03-18T08:37:51.723Z,27.10
2023-03-18T08:40:26.173Z,23.63
2023-03-18T08:42:55.241Z,30.33
2023-03-18T08:45:24.528Z,27.77
2023-03-18T08:47:55.418Z,28.77
2023-03-18T08:50:37.483Z,30.13
2023-03-18T08:53:06.744Z,28.63
2023-03-18T08:55:42.173Z,35.20
2023-03-18T08:58:10.538Z,37.07
2023-03-18T09:00:41.824Z,34.23
2023-03-18T09:03:11.952Z,31.67
2023-03-18T09:05:49.029Z,33.23
2023-03-18T09:08:19.576Z,34.10
2023-03-18T09:10:53.814Z,31.57
2023-03-18T09:13:23.980Z,30.63
2023-03-18T09:15:53.056Z,32.70
2023-03-18T09:18:23.073Z,32.77
2023-03-18T09:20:51.848Z,32.07
2023-03-18T09:23:26.411Z,31.87
2023-03-18T09:25:55.166Z,29.50
2023-03-18T09:28:23.489Z,30.97
2023-03-18T09:30:51.580Z,30.73
2023-03-18T09:33:21.137Z,26.70
2023-03-18T09:35:50.956Z,33.33
2023-03-18T09:38:22.567Z,29.03
2023-03-18T09:41:29.905Z,24.67
2023-03-18T09:44:19.710Z,22.73
2023-03-18T09:47:08.558Z,22.83
2023-03-18T09:49:46.015Z,21.67
2023-03-18T09:52:42.342Z,20.60
2023-03-18T09:55:40.458Z,18.17
2023-03-18T09:58:25.801Z,16.07
2023-03-18T10:01:05.174Z,14.30
2023-03-18T10:03:46.907Z,13.53
2023-03-18T10:06:31.104Z,12.70
2023-03-18T10:09:14.564Z,11.40
2023-03-18T10:11:50.292Z,10.60
2023-03-18T10:14:37.395Z,11.70
2023-03-18T10:17:18.901Z,10.55
2023-03-18T10:20:04.537Z,9.77
2023-03-18T10:22:47.448Z,9.13
2023-03-18T10:25:33.673Z,10.15
2023-03-18T10:28:38.538Z,9.80
2023-03-18T10:31:42.637Z,9.68
2023-03-18T10:34:31.297Z,8.70
2023-03-18T10:37:35.563Z,7.35
2023-03-18T10:40:17.267Z,8.07
2023-03-18T10:42:48.821Z,7.78
2023-03-18T10:45:25.769Z,7.55
2023-03-18T10:48:15.912Z,6.72
2023-03-18T10:50:48.357Z,7.07
2023-03-18T10:53:29.599Z,6.88
2023-03-18T10:56:06.255Z,7.07
2023-03-18T10:58:38.304Z,6.28
2023-03-18T11:01:12.189Z,7.20
2023-03-18T11:03:47.607Z,10.73
2023-03-18T11:06:37.088Z,5.60
2023-03-18T11:09:13.172Z,5.80
2023-03-18T11:11:51.061Z,4.57
2023-03-18T11:14:31.023Z,8.13
2023-03-18T11:17:19.401Z,5.60
2023-03-18T11:20:19.752Z,5.15
2023-03-18T11:22:51.741Z,7.35
2023-03-18T11:25:24.176Z,7.10
2023-03-18T11:27:59.241Z,4.93
2023-03-18T11:30:53.238Z,4.63
2023-03-18T11:33:24.808Z,6.40
2023-03-18T11:35:59.051Z,4.53
2023-03-18T11:38:29.487Z,4.40
2023-03-18T11:41:18.387Z,4.60
2023-03-18T11:44:06.787Z,4.93
2023-03-18T11:46:46.000Z,4.22
2023-03-18T11:49:25.517Z,4.67
2023-03-18T11:52:17.587Z,4.47
2023-03-18T11:55:01.631Z,4.30
2023-03-18T11:57:50.564Z,4.73
2023-03-18T12:00:26.687Z,3.30
2023-03-18T12:03:41.095Z,5.10
2023-03-18T12:06:22.416Z,3.80
2023-03-18T12:09:27.322Z,3.87
2023-03-18T12:11:57.354Z,4.27
2023-03-18T12:14:57.846Z,4.70
2023-03-18T12:17:56.711Z,3.33
2023-03-18T12:20:57.249Z,3.30
2023-03-18T12:23:50.047Z,5.50
2023-03-18T12:26:40.580Z,2.90
2023-03-18T12:29:41.044Z,3.23
2023-03-18T12:32:41.241Z,4.80
2023-03-18T12:35:27.335Z,3.87
2023-03-18T12:38:33.732Z,3.23
2023-03-18T12:41:53.114Z,3.27
2023-03-18T12:44:25.538Z,6.77
2023-03-18T12:47:36.994Z,3.33
2023-03-18T12:50:15.434Z,4.57
2023-03-18T12:53:17.646Z,3.40
2023-03-18T12:55:50.367Z,2.33
2023-03-18T12:58:29.191Z,4.17
2023-03-18T13:01:17.192Z,3.03
2023-03-18T13:03:59.346Z,2.97
2023-03-18T13:06:47.501Z,3.90
2023-03-18T13:09:36.353Z,3.73
2023-03-18T13:12:35.460Z,2.80
2023-03-18T13:15:12.573Z,4.20
2023-03-18T13:17:45.040Z,4.53
2023-03-18T13:20:35.409Z,5.07
2023-03-18T13:23:18.963Z,3.27
2023-03-18T13:26:04.790Z,3.17
2023-03-18T13:29:04.469Z,4.50
2023-03-18T13:31:50.106Z,3.57
2023-03-18T13:34:54.796Z,2.90
2023-03-18T13:37:49.609Z,2.40
2023-03-18T13:40:43.095Z,2.37
2023-03-18T13:43:16.325Z,4.00
2023-03-18T13:45:53.415Z,3.00
2023-03-18T13:48:35.161Z,4.50
2023-03-18T13:51:36.633Z,2.00
2023-03-18T13:54:06.879Z,5.30
2023-03-18T13:56:47.486Z,5.77
2023-03-18T13:59:36.271Z,2.27
2023-03-18T14:02:34.274Z,2.53
2023-03-18T14:05:02.612Z,4.63
2023-03-18T14:07:46.575Z,4.20
2023-03-18T14:10:21.870Z,5.37
2023-03-18T14:12:50.009Z,3.90
2023-03-18T14:15:37.352Z,3.13
2023-03-18T14:18:17.734Z,3.13
2023-03-18T14:20:45.099Z,3.17
2023-03-18T14:23:36.822Z,3.97
2023-03-18T14:26:17.831Z,2.73
2023-03-18T14:28:48.719Z,2.50
2023-03-18T14:31:32.782Z,2.63
2023-03-18T14:34:23.121Z,4.00
2023-03-18T14:36:53.074Z,5.23
2023-03-18T14:39:48.018Z,4.43
2023-03-18T14:42:53.915Z,2.23
2023-03-18T14:45:33.783Z,2.50
2023-03-18T14:48:17.756Z,2.80
2023-03-18T14:50:52.101Z,3.70
2023-03-18T14:53:28.781Z,4.20
2023-03-18T14:55:57.853Z,2.90
2023-03-18T14:58:28.500Z,2.30
2023-03-18T15:01:09.752Z,2.97
2023-03-18T15:03:49.752Z,2.93
2023-03-18T15:06:22.083Z,4.63
2023-03-18T15:09:05.044Z,2.80
2023-03-18T15:11:39.868Z,3.87
2023-03-18T15:14:38.019Z,4.00
2023-03-18T15:17:16.198Z,4.60
2023-03-18T15:19:44.966Z,2.60
2023-03-18T15:22:26.332Z,3.53
2023-03-18T15:25:01.416Z,0.87
2023-03-18T15:27:33.148Z,3.73
2023-03-18T15:30:04.778Z,3.07
2023-03-18T15:32:51.738Z,2.80
2023-03-18T15:35:26.748Z,3.00
2023-03-18T15:38:16.637Z,2.50
2023-03-18T15:40:56.175Z,5.13
2023-03-18T15:43:29.321Z,2.13
2023-03-18T15:46:08.652Z,3.43
2023-03-18T15:48:42.194Z,3.07
2023-03-18T15:51:23.501Z,2.70
2023-03-18T15:53:55.585Z,2.37
2023-03-18T15:56:31.844Z,3.73
2023-03-18T15:59:14.117Z,3.70
2023-03-18T16:01:44.769Z,2.60
2023-03-18T16:04:15.809Z,3.40
2023-03-18T16:06:45.047Z,3.13
2023-03-18T16:09:25.788Z,2.83
2023-03-18T16:12:03.883Z,3.93
2023-03-18T16:14:43.268Z,3.97
2023-03-18T16:17:19.679Z,2.90
2023-03-18T16:19:53.928Z,4.63
2023-03-18T16:22:20.995Z,3.03
2023-03-18T16:24:48.309Z,2.87
2023-03-18T16:27:38.619Z,3.83
2023-03-18T16:30:20.464Z,3.63
2023-03-18T16:32:48.803Z,2.80
2023-03-18T16:35:20.544Z,6.80
2023-03-18T16:37:49.706Z,4.83
2023-03-18T16:40:28.905Z,2.83
2023-03-18T16:42:58.286Z,4.00
2023-03-18T16:45:33.413Z,5.57
2023-03-18T16:48:04.958Z,1.90
2023-03-18T16:50:38.542Z,2.37
2023-03-18T16:53:20.824Z,2.50
2023-03-18T16:55:52.890Z,2.10
2023-03-18T16:58:33.771Z,2.73
2023-03-18T17:01:01.110Z,1.73
2023-03-18T17:03:29.466Z,2.13
2023-03-18T17:05:57.583Z,3.10
2023-03-18T17:08:25.803Z,1.73
2023-03-18T17:10:59.093Z,2.00
2023-03-18T17:13:30.597Z,2.33
2023-03-18T17:15:57.774Z,5.63
2023-03-18T17:18:28.107Z,3.67
2023-03-18T17:20:56.349Z,4.10
2023-03-18T17:23:28.851Z,1.60
2023-03-18T17:26:02.799Z,3.10
2023-03-18T17:28:58.769Z,3.33
2023-03-18T17:31:25.929Z,11.33
2023-03-18T17:33:54.054Z,3.70
2023-03-18T17:36:21.954Z,3.07
2023-03-18T17:38:56.689Z,3.47
2023-03-18T17:41:24.831Z,2.33
2023-03-18T17:43:54.886Z,2.17
2023-03-18T17:46:22.869Z,1.70
2023-03-18T17:48:52.009Z,2.03
2023-03-18T17:51:26.873Z,2.53
2023-03-18T17:53:59.215Z,1.97
2023-03-18T17:56:27.979Z,1.40
2023-03-18T17:58:55.310Z,2.37
2023-03-18T18:01:30.249Z,3.50
2023-03-18T18:04:00.463Z,8.43
2023-03-18T18:06:33.981Z,3.20
2023-03-18T18:09:02.320Z,3.80
2023-03-18T18:11:39.824Z,3.07
2023-03-18T18:14:23.683Z,2.40
2023-03-18T18:16:54.058Z,2.63
2023-03-18T18:19:22.876Z,2.80
2023-03-18T18:21:53.008Z,3.93
2023-03-18T18:24:31.637Z,20.63
2023-03-18T18:26:58.943Z,3.47
2023-03-18T18:29:29.817Z,3.57
2023-03-18T18:32:00.036Z,3.97
2023-03-18T18:34:30.378Z,3.43
2023-03-18T18:36:58.915Z,3.67
2023-03-18T18:39:29.026Z,2.90
2023-03-18T18:41:56.261Z,6.80
2023-03-18T18:44:26.617Z,5.43
2023-03-18T18:46:57.536Z,4.93
2023-03-18T18:49:26.066Z,11.07
2023-03-18T18:51:55.075Z,3.20
2023-03-18T18:54:23.240Z,3.03
2023-03-18T18:56:53.660Z,2.93
2023-03-18T18:59:34.167Z,3.80
2023-03-18T19:02:03.554Z,2.07
2023-03-18T19:04:31.996Z,2.47
2023-03-18T19:07:06.186Z,2.83
2023-03-18T19:09:35.081Z,4.97
2023-03-18T19:12:04.777Z,3.90
2023-03-18T19:14:33.338Z,3.43
2023-03-18T19:17:04.387Z,3.97
2023-03-18T19:19:35.704Z,2.47
2023-03-18T19:22:03.765Z,2.43
2023-03-18T19:24:33.334Z,3.67
2023-03-18T19:27:06.195Z,3.50
2023-03-18T19:29:34.217Z,5.17
2023-03-18T19:32:01.674Z,2.50
2023-03-18T19:34:32.631Z,2.90
2023-03-18T19:37:02.901Z,3.87
2023-03-18T19:39:36.670Z,4.10
2023-03-18T19:42:17.599Z,2.97
2023-03-18T19:44:48.796Z,3.80
2023-03-18T19:47:26.448Z,2.63
2023-03-18T19:49:53.620Z,2.83
2023-03-18T19:52:24.141Z,3.00
2023-03-18T19:54:55.079Z,3.03
2023-03-18T19:57:24.861Z,2.83
2023-03-18T19:59:53.922Z,2.83
2023-03-18T20:02:29.631Z,3.07
2023-03-18T20:05:01.392Z,3.60
2023-03-18T20:07:31.633Z,3.70
2023-03-18T20:10:00.791Z,2.90
2023-03-18T20:12:43.160Z,11.03
2023-03-18T20:15:26.966Z,5.27
2023-03-18T20:17:54.546Z,12.47
2023-03-18T20:20:26.129Z,4.03
2023-03-18T20:22:59.682Z,3.87
2023-03-18T20:25:26.608Z,18.90
2023-03-18T20:27:58.127Z,6.60
2023-03-18T20:30:36.030Z,4.53
2023-03-18T20:33:05.030Z,3.80
2023-03-18T20:35:37.433Z,4.67
2023-03-18T20:38:21.959Z,4.00
2023-03-18T20:40:52.590Z,4.17
2023-03-18T20:43:23.103Z,4.27
2023-03-18T20:45:52.142Z,5.00
2023-03-18T20:48:21.126Z,4.50
2023-03-18T20:50:52.060Z,5.13
2023-03-18T20:53:37.580Z,5.93
2023-03-18T20:56:06.652Z,7.23
2023-03-18T20:58:34.782Z,5.87
2023-03-18T21:01:04.528Z,4.97
2023-03-18T21:03:34.930Z,4.60
2023-03-18T21:06:06.786Z,3.83
2023-03-18T21:08:37.238Z,4.60
2023-03-18T21:11:06.613Z,4.83
2023-03-18T21:13:39.006Z,5.47
2023-03-18T21:16:15.573Z,5.33
2023-03-18T21:18:46.201Z,4.70
2023-03-18T21:21:39.670Z,4.77
2023-03-18T21:24:18.146Z,5.23
2023-03-18T21:26:54.383Z,3.93
2023-03-18T21:29:29.781Z,4.47
2023-03-18T21:31:57.121Z,3.97
2023-03-18T21:34:27.922Z,3.53
2023-03-18T21:36:55.041Z,6.27
2023-03-18T21:39:22.184Z,4.20
2023-03-18T21:41:49.100Z,3.87
2023-03-18T21:44:16.284Z,3.93
2023-03-18T21:46:43.678Z,4.40
2023-03-18T21:49:13.721Z,3.07
2023-03-18T21:51:43.275Z,3.57
2023-03-18T21:54:20.018Z,4.77
2023-03-18T21:56:50.214Z,3.77
2023-03-18T21:59:19.324Z,3.40
2023-03-18T22:01:48.755Z,3.80
2023-03-18T22:04:16.373Z,3.90
2023-03-18T22:06:43.330Z,3.70
2023-03-18T22:09:12.533Z,3.40
2023-03-18T22:11:40.702Z,3.20
2023-03-18T22:14:13.453Z,3.87
2023-03-18T22:16:40.495Z,3.73
2023-03-18T22:19:07.527Z,3.87
2023-03-18T22:21:34.534Z,6.67
2023-03-18T22:24:04.710Z,5.10
2023-03-18T22:26:34.055Z,4.53
2023-03-18T22:29:03.128Z,3.53
2023-03-18T22:31:30.865Z,4.00
2023-03-18T22:34:01.045Z,7.20
2023-03-18T22:36:29.615Z,4.27
2023-03-18T22:38:59.655Z,3.67
2023-03-18T22:41:30.576Z,4.10
2023-03-18T22:44:00.146Z,4.90
2023-03-18T22:46:28.547Z,4.00
2023-03-18T22:48:59.311Z,5.40
2023-03-18T22:51:36.696Z,4.50
2023-03-18T22:54:07.776Z,5.47
2023-03-18T22:56:36.722Z,6.60
2023-03-18T22:59:12.185Z,4.73
2023-03-18T23:01:42.573Z,6.00
2023-03-18T23:04:12.364Z,5.43
2023-03-18T23:06:41.713Z,5.40
2023-03-18T23:09:12.360Z,5.53
2023-03-18T23:11:42.520Z,6.67
2023-03-18T23:14:12.647Z,5.50
2023-03-18T23:16:40.795Z,5.27
2023-03-18T23:19:08.863Z,5.73
2023-03-18T23:21:36.001Z,5.17
2023-03-18T23:24:03.046Z,5.17
2023-03-18T23:26:30.082Z,5.97
2023-03-18T23:28:57.192Z,4.70
2023-03-18T23:31:24.230Z,5.63
2023-03-18T23:33:51.326Z,4.63
2023-03-18T23:36:18.516Z,5.03
2023-03-18T23:38:46.038Z,7.10
2023-03-18T23:41:15.006Z,5.03
2023-03-18T23:43:46.243Z,4.37
2023-03-18T23:46:14.388Z,4.77
2023-03-18T23:48:41.375Z,5.17
2023-03-18T23:51:11.424Z,5.47
2023-03-18T23:53:44.414Z,5.20
2023-03-18T23:56:15.105Z,5.30
2023-03-18T23:58:45.305Z,5.80
